createdAt,value
2022-08-31T00:00:19.369Z,22.83
2022-08-31T00:01:39.935Z,22.84
2022-08-31T00:03:00.490Z,22.85
2022-08-31T00:04:05.886Z,22.86
2022-08-31T00:05:09.404Z,22.85
2022-08-31T00:06:11.110Z,22.73
2022-08-31T00:07:12.839Z,22.86
2022-08-31T00:08:15.151Z,22.88
2022-08-31T00:09:17.085Z,22.84
2022-08-31T00:10:19.990Z,22.81
2022-08-31T00:11:30.210Z,22.81
2022-08-31T00:12:31.923Z,22.81
2022-08-31T00:13:33.641Z,22.78
2022-08-31T00:14:37.223Z,22.82
2022-08-31T00:15:39.488Z,22.82
2022-08-31T00:16:43.686Z,22.81
2022-08-31T00:17:45.866Z,22.73
2022-08-31T00:18:52.799Z,22.78
2022-08-31T00:19:54.538Z,22.79
2022-08-31T00:20:56.243Z,22.78
2022-08-31T00:21:58.175Z,22.78
2022-08-31T00:22:59.924Z,22.78
2022-08-31T00:24:01.745Z,22.78
2022-08-31T00:25:04.141Z,22.78
2022-08-31T00:26:06.018Z,22.78
2022-08-31T00:27:07.737Z,22.67
2022-08-31T00:28:11.013Z,22.78
2022-08-31T00:29:13.727Z,22.70
2022-08-31T00:30:15.922Z,22.64
2022-08-31T00:31:18.769Z,22.55
2022-08-31T00:32:21.636Z,22.64
2022-08-31T00:33:24.702Z,22.66
2022-08-31T00:34:28.077Z,22.34
2022-08-31T00:35:31.810Z,22.55
2022-08-31T00:36:33.681Z,22.54
2022-08-31T00:37:35.483Z,22.51
2022-08-31T00:38:38.291Z,22.51
2022-08-31T00:39:40.255Z,22.43
2022-08-31T00:40:45.398Z,22.47
2022-08-31T00:41:48.042Z,22.47
2022-08-31T00:42:49.878Z,22.37
2022-08-31T00:44:01.365Z,22.41
2022-08-31T00:45:04.062Z,22.37
2022-08-31T00:46:08.078Z,22.39
2022-08-31T00:47:10.561Z,22.24
2022-08-31T00:48:12.264Z,22.33
2022-08-31T00:49:21.890Z,22.18
2022-08-31T00:50:25.246Z,22.17
2022-08-31T00:51:29.458Z,22.02
2022-08-31T00:52:37.744Z,21.95
2022-08-31T00:53:40.029Z,21.92
2022-08-31T00:54:48.406Z,21.73
2022-08-31T00:55:50.306Z,21.79
2022-08-31T00:56:52.331Z,21.62
2022-08-31T00:57:57.481Z,21.68
2022-08-31T00:59:00.349Z,21.88
2022-08-31T01:00:06.164Z,21.92
2022-08-31T01:01:09.347Z,21.96
2022-08-31T01:02:11.327Z,22.02
2022-08-31T01:03:13.292Z,22.02
2022-08-31T01:04:15.621Z,22.01
2022-08-31T01:05:17.923Z,22.05
2022-08-31T01:06:20.596Z,22.08
2022-08-31T01:07:22.973Z,22.03
2022-08-31T01:08:30.592Z,22.12
2022-08-31T01:09:36.333Z,22.16
2022-08-31T01:10:41.210Z,22.07
2022-08-31T01:11:43.483Z,22.13
2022-08-31T01:12:47.986Z,22.23
2022-08-31T01:13:52.759Z,22.24
2022-08-31T01:14:55.254Z,22.26
2022-08-31T01:16:03.083Z,22.23
2022-08-31T01:17:06.334Z,22.13
2022-08-31T01:18:08.916Z,22.26
2022-08-31T01:19:42.773Z,22.28
2022-08-31T01:20:51.764Z,22.23
2022-08-31T01:22:11.453Z,22.32
2022-08-31T01:23:19.676Z,22.31
2022-08-31T01:24:23.834Z,22.31
2022-08-31T01:25:33.443Z,22.24
2022-08-31T01:26:38.043Z,22.28
2022-08-31T01:27:39.931Z,22.20
2022-08-31T01:28:41.951Z,22.31
2022-08-31T01:29:43.636Z,22.31
2022-08-31T01:30:59.233Z,22.33
2022-08-31T01:32:02.023Z,22.35
2022-08-31T01:33:04.402Z,22.36
2022-08-31T01:34:06.657Z,22.36
2022-08-31T01:35:11.456Z,22.25
2022-08-31T01:36:16.092Z,22.28
2022-08-31T01:37:18.166Z,22.31
2022-08-31T01:38:19.986Z,22.31
2022-08-31T01:39:21.908Z,22.22
2022-08-31T01:40:36.175Z,22.24
2022-08-31T01:41:43.572Z,22.24
2022-08-31T01:42:45.365Z,22.15
2022-08-31T01:43:47.115Z,22.17
2022-08-31T01:44:48.816Z,22.11
2022-08-31T01:45:51.119Z,22.17
2022-08-31T01:46:52.932Z,22.14
2022-08-31T01:47:54.718Z,21.99
2022-08-31T01:48:56.411Z,22.08
2022-08-31T01:49:58.234Z,21.95
2022-08-31T01:50:59.993Z,21.98
2022-08-31T01:52:01.796Z,22.01
2022-08-31T01:53:04.229Z,21.93
2022-08-31T01:54:06.157Z,21.99
2022-08-31T01:55:08.382Z,22.08
2022-08-31T01:56:16.997Z,22.02
2022-08-31T01:57:18.707Z,22.08
2022-08-31T01:58:32.569Z,22.09
2022-08-31T01:59:34.275Z,22.09
2022-08-31T02:00:36.741Z,22.05
2022-08-31T02:01:43.363Z,22.03
2022-08-31T02:02:45.179Z,22.08
2022-08-31T02:03:46.941Z,22.09
2022-08-31T02:04:48.641Z,22.11
2022-08-31T02:05:50.368Z,22.09
2022-08-31T02:06:55.078Z,22.16
2022-08-31T02:07:57.270Z,22.14
2022-08-31T02:08:59.674Z,22.13
2022-08-31T02:10:01.421Z,22.15
2022-08-31T02:11:04.774Z,22.24
2022-08-31T02:12:06.595Z,22.24
2022-08-31T02:13:08.304Z,22.23
2022-08-31T02:14:10.790Z,22.22
2022-08-31T02:15:12.552Z,22.21
2022-08-31T02:16:14.545Z,22.23
2022-08-31T02:17:16.819Z,22.24
2022-08-31T02:18:18.570Z,22.22
2022-08-31T02:19:20.295Z,22.21
2022-08-31T02:20:22.035Z,22.10
2022-08-31T02:21:24.469Z,22.10
2022-08-31T02:22:26.321Z,22.10
2022-08-31T02:23:28.152Z,22.01
2022-08-31T02:24:29.943Z,21.89
2022-08-31T02:25:31.792Z,21.96
2022-08-31T02:26:33.580Z,21.84
2022-08-31T02:27:37.061Z,21.85
2022-08-31T02:28:38.792Z,21.85
2022-08-31T02:29:40.481Z,21.60
2022-08-31T02:30:42.831Z,21.62
2022-08-31T02:31:44.598Z,21.55
2022-08-31T02:32:46.504Z,21.54
2022-08-31T02:33:48.344Z,21.54
2022-08-31T02:34:50.484Z,21.57
2022-08-31T02:35:53.780Z,21.59
2022-08-31T02:36:56.758Z,21.44
2022-08-31T02:37:58.672Z,21.52
2022-08-31T02:39:00.884Z,21.57
2022-08-31T02:40:09.405Z,21.56
2022-08-31T02:41:14.126Z,21.61
2022-08-31T02:42:15.826Z,21.62
2022-08-31T02:43:24.856Z,21.56
2022-08-31T02:44:26.920Z,21.61
2022-08-31T02:45:28.612Z,21.56
2022-08-31T02:46:30.453Z,21.49
2022-08-31T02:47:32.487Z,21.48
2022-08-31T02:48:34.923Z,21.47
2022-08-31T02:49:36.666Z,21.41
2022-08-31T02:50:47.212Z,21.47
2022-08-31T02:51:49.264Z,21.44
2022-08-31T02:52:53.638Z,21.45
2022-08-31T02:53:55.577Z,21.38
2022-08-31T02:54:57.653Z,21.41
2022-08-31T02:55:59.650Z,21.41
2022-08-31T02:57:02.844Z,21.40
2022-08-31T02:58:05.135Z,21.28
2022-08-31T02:59:07.694Z,21.43
2022-08-31T03:00:10.933Z,21.34
2022-08-31T03:01:12.715Z,21.38
2022-08-31T03:02:14.637Z,21.36
2022-08-31T03:03:17.145Z,21.35
2022-08-31T03:04:18.928Z,21.23
2022-08-31T03:05:22.261Z,21.12
2022-08-31T03:06:24.405Z,21.05
2022-08-31T03:07:26.136Z,21.16
2022-08-31T03:08:28.497Z,21.15
2022-08-31T03:09:33.145Z,21.28
2022-08-31T03:10:35.283Z,21.30
2022-08-31T03:11:37.014Z,21.29
2022-08-31T03:12:38.765Z,21.36
2022-08-31T03:13:41.723Z,21.27
2022-08-31T03:14:43.426Z,21.29
2022-08-31T03:15:45.263Z,21.36
2022-08-31T03:16:47.146Z,21.29
2022-08-31T03:17:54.006Z,21.41
2022-08-31T03:18:55.817Z,21.50
2022-08-31T03:20:01.130Z,21.47
2022-08-31T03:21:02.896Z,21.58
2022-08-31T03:22:04.789Z,21.60
2022-08-31T03:23:06.697Z,21.65
2022-08-31T03:24:08.952Z,21.61
2022-08-31T03:25:10.728Z,21.64
2022-08-31T03:26:12.586Z,21.74
2022-08-31T03:27:14.326Z,21.69
2022-08-31T03:28:16.153Z,21.73
2022-08-31T03:29:17.926Z,21.81
2022-08-31T03:30:22.587Z,21.82
2022-08-31T03:31:25.912Z,21.76
2022-08-31T03:32:27.853Z,21.84
2022-08-31T03:33:29.571Z,21.74
2022-08-31T03:34:31.299Z,21.76
2022-08-31T03:35:33.327Z,21.88
2022-08-31T03:36:35.070Z,21.90
2022-08-31T03:37:36.900Z,21.91
2022-08-31T03:38:38.581Z,21.87
2022-08-31T03:39:40.326Z,21.96
2022-08-31T03:40:43.031Z,21.94
2022-08-31T03:41:44.933Z,21.97
2022-08-31T03:42:46.731Z,22.02
2022-08-31T03:43:48.504Z,22.02
2022-08-31T03:44:50.829Z,22.04
2022-08-31T03:45:53.165Z,22.06
2022-08-31T03:46:57.479Z,22.06
2022-08-31T03:47:59.782Z,22.05
2022-08-31T03:49:02.782Z,22.07
2022-08-31T03:50:06.082Z,21.92
2022-08-31T03:51:08.002Z,21.94
2022-08-31T03:52:10.195Z,21.83
2022-08-31T03:53:12.748Z,22.12
2022-08-31T03:54:15.258Z,22.13
2022-08-31T03:55:17.324Z,22.14
2022-08-31T03:56:19.320Z,22.12
2022-08-31T03:57:21.092Z,22.08
2022-08-31T03:58:22.801Z,22.14
2022-08-31T03:59:24.505Z,22.15
2022-08-31T04:00:28.454Z,22.04
2022-08-31T04:01:30.661Z,22.06
2022-08-31T04:02:37.395Z,22.17
2022-08-31T04:03:39.641Z,22.12
2022-08-31T04:04:41.325Z,22.06
2022-08-31T04:05:44.608Z,21.86
2022-08-31T04:06:46.319Z,21.82
2022-08-31T04:07:48.112Z,21.63
2022-08-31T04:08:49.845Z,21.57
2022-08-31T04:09:51.553Z,21.47
2022-08-31T04:10:54.122Z,21.36
2022-08-31T04:11:55.890Z,21.22
2022-08-31T04:12:57.627Z,21.17
2022-08-31T04:13:59.763Z,20.97
2022-08-31T04:15:02.567Z,20.93
2022-08-31T04:16:07.912Z,20.92
2022-08-31T04:17:11.680Z,20.86
2022-08-31T04:18:14.117Z,20.90
2022-08-31T04:19:16.938Z,20.84
2022-08-31T04:20:18.800Z,20.87
2022-08-31T04:21:33.022Z,20.87
2022-08-31T04:22:34.749Z,20.85
2022-08-31T04:23:39.536Z,20.80
2022-08-31T04:24:41.257Z,20.81
2022-08-31T04:25:43.381Z,20.81
2022-08-31T04:26:45.194Z,20.67
2022-08-31T04:27:48.046Z,20.76
2022-08-31T04:28:50.630Z,20.90
2022-08-31T04:29:52.363Z,20.72
2022-08-31T04:30:54.173Z,21.04
2022-08-31T04:31:56.232Z,20.95
2022-08-31T04:32:58.203Z,20.87
2022-08-31T04:34:00.435Z,20.89
2022-08-31T04:35:02.238Z,20.84
2022-08-31T04:36:13.455Z,20.75
2022-08-31T04:37:15.188Z,20.67
2022-08-31T04:38:16.949Z,20.64
2022-08-31T04:39:21.157Z,20.73
2022-08-31T04:40:26.086Z,20.81
2022-08-31T04:41:29.931Z,20.84
2022-08-31T04:42:31.871Z,21.05
2022-08-31T04:43:33.652Z,21.16
2022-08-31T04:44:35.618Z,21.31
2022-08-31T04:45:45.956Z,21.45
2022-08-31T04:46:48.151Z,21.57
2022-08-31T04:47:49.920Z,21.61
2022-08-31T04:48:52.112Z,21.78
2022-08-31T04:49:53.835Z,21.90
2022-08-31T04:51:06.603Z,22.03
2022-08-31T04:52:08.422Z,22.01
2022-08-31T04:53:10.945Z,22.14
2022-08-31T04:54:14.149Z,22.20
2022-08-31T04:55:16.132Z,22.25
2022-08-31T04:56:21.187Z,22.34
2022-08-31T04:57:22.931Z,22.40
2022-08-31T04:58:25.163Z,22.58
2022-08-31T04:59:27.657Z,22.73
2022-08-31T05:00:29.472Z,22.82
2022-08-31T05:01:36.786Z,22.82
2022-08-31T05:02:47.741Z,22.78
2022-08-31T05:03:53.522Z,22.85
2022-08-31T05:04:55.255Z,22.92
2022-08-31T05:05:57.112Z,23.01
2022-08-31T05:06:59.134Z,23.22
2022-08-31T05:08:01.043Z,23.31
2022-08-31T05:09:07.242Z,23.60
2022-08-31T05:10:09.473Z,23.75
2022-08-31T05:11:12.977Z,23.80
2022-08-31T05:12:14.729Z,24.00
2022-08-31T05:13:16.676Z,24.09
2022-08-31T05:14:19.002Z,24.21
2022-08-31T05:15:20.711Z,24.45
2022-08-31T05:16:22.565Z,24.73
2022-08-31T05:17:24.373Z,24.89
2022-08-31T05:18:26.456Z,25.27
2022-08-31T05:19:28.209Z,25.52
2022-08-31T05:20:29.918Z,25.65
2022-08-31T05:21:35.076Z,25.96
2022-08-31T05:22:36.820Z,26.28
2022-08-31T05:23:39.200Z,26.38
2022-08-31T05:24:40.943Z,26.70
2022-08-31T05:25:44.209Z,26.90
2022-08-31T05:26:49.249Z,27.09
2022-08-31T05:27:51.018Z,27.31
2022-08-31T05:28:54.879Z,27.41
2022-08-31T05:29:56.618Z,27.69
2022-08-31T05:30:58.357Z,27.85
2022-08-31T05:32:00.146Z,28.04
2022-08-31T05:33:01.908Z,28.19
2022-08-31T05:34:04.953Z,28.48
2022-08-31T05:35:07.609Z,28.73
2022-08-31T05:36:10.391Z,28.89
2022-08-31T05:37:12.656Z,29.10
2022-08-31T05:38:14.400Z,29.33
2022-08-31T05:39:16.141Z,29.52
2022-08-31T05:40:17.996Z,29.75
2022-08-31T05:41:21.554Z,29.99
2022-08-31T05:42:23.301Z,30.17
2022-08-31T05:43:25.546Z,30.33
2022-08-31T05:44:29.408Z,30.47
2022-08-31T05:45:31.421Z,30.68
2022-08-31T05:46:33.607Z,30.86
2022-08-31T05:47:35.426Z,30.94
2022-08-31T05:48:37.962Z,31.08
2022-08-31T05:49:43.063Z,31.34
2022-08-31T05:50:45.526Z,31.47
2022-08-31T05:51:47.221Z,31.44
2022-08-31T05:52:49.070Z,31.41
2022-08-31T05:53:50.771Z,31.64
2022-08-31T05:54:52.568Z,31.69
2022-08-31T05:56:06.990Z,31.85
2022-08-31T05:57:08.833Z,31.97
2022-08-31T05:58:10.647Z,32.13
2022-08-31T05:59:12.745Z,32.21
2022-08-31T06:00:14.649Z,32.24
2022-08-31T06:01:17.688Z,32.42
2022-08-31T06:02:19.433Z,32.49
2022-08-31T06:03:21.231Z,32.57
2022-08-31T06:04:22.979Z,32.40
2022-08-31T06:05:24.971Z,32.74
2022-08-31T06:06:27.395Z,32.92
2022-08-31T06:07:29.114Z,33.20
2022-08-31T06:08:30.901Z,33.42
2022-08-31T06:09:33.018Z,33.65
2022-08-31T06:10:34.921Z,33.66
2022-08-31T06:11:38.465Z,33.88
2022-08-31T06:12:40.236Z,34.06
2022-08-31T06:13:42.707Z,34.12
2022-08-31T06:14:47.905Z,34.06
2022-08-31T06:15:52.044Z,33.85
2022-08-31T06:16:55.634Z,33.73
2022-08-31T06:17:57.950Z,33.77
2022-08-31T06:19:03.509Z,33.81
2022-08-31T06:20:06.079Z,33.76
2022-08-31T06:21:10.046Z,33.81
2022-08-31T06:22:11.848Z,33.82
2022-08-31T06:23:13.720Z,33.96
2022-08-31T06:24:15.443Z,33.96
2022-08-31T06:25:19.455Z,34.02
2022-08-31T06:26:23.013Z,34.08
2022-08-31T06:27:25.087Z,34.15
2022-08-31T06:28:26.994Z,34.25
2022-08-31T06:29:31.694Z,34.39
2022-08-31T06:30:54.418Z,34.57
2022-08-31T06:31:57.823Z,34.53
2022-08-31T06:32:59.973Z,34.61
2022-08-31T06:34:02.762Z,34.57
2022-08-31T06:35:04.705Z,34.38
2022-08-31T06:36:12.151Z,34.41
2022-08-31T06:37:18.552Z,34.34
2022-08-31T06:38:20.948Z,34.64
2022-08-31T06:39:23.460Z,34.68
2022-08-31T06:40:29.200Z,34.89
2022-08-31T06:41:36.890Z,34.91
2022-08-31T06:42:38.887Z,35.02
2022-08-31T06:43:40.792Z,34.97
2022-08-31T06:44:42.485Z,34.96
2022-08-31T06:45:44.209Z,34.99
2022-08-31T06:46:47.267Z,35.10
2022-08-31T06:47:49.352Z,35.19
2022-08-31T06:48:55.458Z,35.16
2022-08-31T06:49:57.450Z,35.22
2022-08-31T06:50:59.921Z,35.21
2022-08-31T06:52:01.710Z,35.33
2022-08-31T06:53:03.496Z,35.47
2022-08-31T06:54:27.590Z,35.60
2022-08-31T06:55:29.180Z,35.72
2022-08-31T06:56:31.004Z,35.77
2022-08-31T06:57:33.098Z,35.82
2022-08-31T06:58:37.342Z,35.99
2022-08-31T06:59:39.022Z,36.15
2022-08-31T07:00:41.168Z,36.27
2022-08-31T07:01:43.224Z,36.21
2022-08-31T07:02:45.191Z,36.44
2022-08-31T07:03:59.940Z,36.59
2022-08-31T07:05:01.705Z,36.64
2022-08-31T07:06:09.337Z,36.71
2022-08-31T07:07:14.172Z,36.79
2022-08-31T07:08:16.020Z,36.70
2022-08-31T07:09:18.473Z,36.33
2022-08-31T07:10:20.639Z,36.28
2022-08-31T07:11:35.468Z,36.61
2022-08-31T07:12:37.256Z,36.81
2022-08-31T07:13:39.074Z,36.84
2022-08-31T07:14:41.052Z,36.54
2022-08-31T07:15:42.841Z,36.56
2022-08-31T07:16:46.233Z,36.45
2022-08-31T07:17:49.983Z,36.29
2022-08-31T07:18:54.546Z,36.22
2022-08-31T07:19:56.411Z,36.29
2022-08-31T07:21:16.802Z,36.54
2022-08-31T07:22:18.630Z,36.76
2022-08-31T07:23:20.517Z,36.83
2022-08-31T07:24:25.432Z,36.83
2022-08-31T07:25:27.286Z,36.68
2022-08-31T07:26:36.420Z,36.78
2022-08-31T07:27:40.219Z,36.56
2022-08-31T07:28:43.513Z,36.53
2022-08-31T07:29:45.488Z,36.49
2022-08-31T07:30:50.230Z,36.42
2022-08-31T07:31:52.648Z,36.52
2022-08-31T07:32:56.318Z,36.75
2022-08-31T07:33:59.050Z,36.90
2022-08-31T07:35:01.139Z,36.96
2022-08-31T07:36:03.109Z,36.79
2022-08-31T07:37:25.793Z,36.77
2022-08-31T07:38:46.271Z,36.88
2022-08-31T07:40:08.333Z,37.03
2022-08-31T07:41:29.548Z,37.33
2022-08-31T07:42:35.350Z,37.59
2022-08-31T07:43:37.474Z,37.74
2022-08-31T07:44:53.466Z,37.88
2022-08-31T07:45:55.541Z,38.17
2022-08-31T07:46:57.727Z,38.33
2022-08-31T07:48:00.642Z,38.33
2022-08-31T07:49:02.472Z,38.39
2022-08-31T07:50:04.429Z,38.57
2022-08-31T07:51:06.299Z,38.86
2022-08-31T07:52:09.067Z,39.03
2022-08-31T07:53:11.663Z,39.29
2022-08-31T07:54:14.600Z,39.56
2022-08-31T07:55:18.277Z,39.52
2022-08-31T07:56:21.255Z,39.68
2022-08-31T07:57:26.074Z,39.84
2022-08-31T07:58:28.318Z,40.18
2022-08-31T07:59:33.208Z,40.24
2022-08-31T08:00:36.364Z,40.48
2022-08-31T08:01:40.513Z,40.55
2022-08-31T08:02:46.423Z,40.73
2022-08-31T08:03:55.527Z,40.79
2022-08-31T08:05:01.109Z,40.90
2022-08-31T08:06:07.321Z,41.03
2022-08-31T08:07:11.417Z,41.17
2022-08-31T08:08:13.893Z,41.18
2022-08-31T08:09:24.650Z,41.29
2022-08-31T08:10:27.926Z,41.36
2022-08-31T08:11:29.783Z,41.39
2022-08-31T08:12:35.497Z,41.45
2022-08-31T08:13:38.252Z,41.56
2022-08-31T08:14:40.350Z,41.67
2022-08-31T08:15:42.207Z,41.75
2022-08-31T08:16:44.017Z,41.84
2022-08-31T08:17:45.900Z,41.67
2022-08-31T08:18:48.066Z,41.65
2022-08-31T08:19:49.924Z,41.62
2022-08-31T08:20:53.024Z,41.79
2022-08-31T08:21:55.889Z,41.55
2022-08-31T08:22:58.049Z,41.60
2022-08-31T08:24:00.248Z,41.73
2022-08-31T08:25:07.147Z,41.88
2022-08-31T08:26:21.998Z,41.95
2022-08-31T08:27:24.227Z,41.99
2022-08-31T08:28:43.103Z,41.94
2022-08-31T08:29:44.980Z,41.86
2022-08-31T08:30:54.459Z,41.99
2022-08-31T08:31:56.605Z,42.06
2022-08-31T08:33:01.490Z,41.96
2022-08-31T08:34:03.441Z,41.65
2022-08-31T08:35:05.762Z,41.65
2022-08-31T08:36:08.735Z,41.83
2022-08-31T08:37:11.920Z,41.72
2022-08-31T08:38:13.686Z,41.62
2022-08-31T08:39:16.758Z,41.85
2022-08-31T08:40:37.552Z,41.99
2022-08-31T08:41:40.804Z,42.11
2022-08-31T08:42:42.522Z,42.18
2022-08-31T08:43:57.444Z,42.25
2022-08-31T08:44:59.505Z,42.30
2022-08-31T08:46:25.289Z,42.45
2022-08-31T08:47:38.611Z,42.28
2022-08-31T08:48:42.900Z,42.11
2022-08-31T08:49:54.189Z,41.78
2022-08-31T08:50:56.796Z,42.03
2022-08-31T08:52:03.847Z,42.05
2022-08-31T08:53:10.848Z,41.97
2022-08-31T08:54:24.029Z,42.09
2022-08-31T08:55:38.000Z,42.26
2022-08-31T08:56:47.256Z,42.41
2022-08-31T08:57:52.368Z,42.50
2022-08-31T08:58:54.245Z,42.57
2022-08-31T08:59:58.447Z,42.51
2022-08-31T09:01:02.534Z,42.62
2022-08-31T09:02:06.813Z,42.67
2022-08-31T09:03:12.470Z,42.63
2022-08-31T09:04:33.497Z,42.46
2022-08-31T09:05:51.119Z,42.28
2022-08-31T09:07:09.244Z,41.39
2022-08-31T09:08:32.331Z,40.79
2022-08-31T09:09:37.144Z,40.32
2022-08-31T09:11:06.449Z,40.04
2022-08-31T09:12:31.083Z,40.03
2022-08-31T09:13:43.076Z,40.35
2022-08-31T09:14:53.854Z,40.63
2022-08-31T09:16:20.810Z,40.85
2022-08-31T09:17:56.820Z,41.27
2022-08-31T09:19:06.684Z,41.23
2022-08-31T09:20:13.268Z,41.25
2022-08-31T09:21:20.919Z,41.36
2022-08-31T09:22:22.622Z,41.50
2022-08-31T09:23:28.160Z,41.75
2022-08-31T09:24:33.162Z,41.88
2022-08-31T09:25:52.490Z,41.96
2022-08-31T09:27:18.052Z,42.12
2022-08-31T09:28:48.497Z,42.09
2022-08-31T09:30:00.700Z,41.90
2022-08-31T09:31:02.802Z,41.57
2022-08-31T09:32:07.364Z,41.54
2022-08-31T09:33:18.351Z,41.54
2022-08-31T09:34:33.071Z,41.52
2022-08-31T09:35:40.585Z,41.68
2022-08-31T09:36:42.394Z,41.80
2022-08-31T09:37:57.226Z,41.56
2022-08-31T09:39:14.445Z,41.60
2022-08-31T09:40:32.632Z,41.64
2022-08-31T09:41:36.648Z,41.80
2022-08-31T09:42:38.380Z,41.90
2022-08-31T09:43:41.117Z,42.08
2022-08-31T09:44:48.229Z,42.14
2022-08-31T09:46:05.392Z,42.06
2022-08-31T09:47:40.498Z,42.28
2022-08-31T09:48:56.193Z,42.29
2022-08-31T09:49:58.225Z,42.07
2022-08-31T09:51:04.567Z,42.29
2022-08-31T09:52:47.774Z,42.52
2022-08-31T09:54:08.172Z,42.56
2022-08-31T09:55:14.684Z,42.76
2022-08-31T09:56:18.078Z,42.89
2022-08-31T09:57:40.046Z,42.80
2022-08-31T09:58:44.376Z,42.84
2022-08-31T09:59:49.462Z,42.94
2022-08-31T10:00:52.570Z,42.75
2022-08-31T10:01:55.666Z,42.75
2022-08-31T10:03:09.062Z,42.84
2022-08-31T10:04:28.541Z,42.89
2022-08-31T10:05:46.121Z,42.99
2022-08-31T10:06:55.507Z,43.02
2022-08-31T10:08:19.488Z,42.61
2022-08-31T10:09:40.371Z,42.23
2022-08-31T10:10:45.149Z,42.01
2022-08-31T10:11:49.778Z,41.77
2022-08-31T10:12:58.305Z,41.58
2022-08-31T10:14:16.978Z,41.20
2022-08-31T10:15:30.518Z,41.03
2022-08-31T10:16:41.831Z,40.59
2022-08-31T10:18:15.018Z,40.76
2022-08-31T10:19:30.548Z,41.06
2022-08-31T10:20:39.901Z,41.30
2022-08-31T10:21:54.950Z,41.44
2022-08-31T10:23:21.095Z,41.27
2022-08-31T10:24:34.762Z,41.30
2022-08-31T10:25:46.758Z,41.23
2022-08-31T10:26:57.199Z,41.35
2022-08-31T10:28:15.518Z,41.71
2022-08-31T10:29:31.918Z,41.55
2022-08-31T10:30:52.560Z,41.54
2022-08-31T10:31:57.607Z,41.28
2022-08-31T10:33:10.469Z,41.34
2022-08-31T10:34:38.879Z,41.38
2022-08-31T10:35:57.702Z,41.73
2022-08-31T10:37:12.699Z,41.90
2022-08-31T10:38:21.361Z,42.15
2022-08-31T10:39:37.774Z,42.17
2022-08-31T10:40:49.944Z,41.87
2022-08-31T10:41:52.462Z,41.84
2022-08-31T10:43:09.565Z,41.61
2022-08-31T10:44:36.485Z,41.20
2022-08-31T10:45:44.323Z,40.75
2022-08-31T10:46:46.171Z,40.88
2022-08-31T10:47:51.126Z,41.09
2022-08-31T10:48:55.728Z,41.00
2022-08-31T10:50:00.186Z,41.02
2022-08-31T10:51:36.929Z,41.15
2022-08-31T10:52:48.395Z,41.31
2022-08-31T10:53:59.930Z,41.26
2022-08-31T10:55:29.486Z,41.28
2022-08-31T10:57:05.555Z,41.28
2022-08-31T10:58:13.136Z,41.10
2022-08-31T10:59:36.145Z,41.13
2022-08-31T11:00:57.222Z,41.23
2022-08-31T11:02:36.190Z,40.97
2022-08-31T11:03:59.444Z,40.78
2022-08-31T11:05:10.788Z,40.68
2022-08-31T11:06:35.497Z,40.77
2022-08-31T11:07:53.998Z,41.02
2022-08-31T11:09:20.261Z,40.63
2022-08-31T11:10:34.116Z,40.56
2022-08-31T11:11:44.152Z,40.75
2022-08-31T11:12:52.854Z,40.90
2022-08-31T11:14:27.259Z,40.85
2022-08-31T11:15:54.986Z,40.72
2022-08-31T11:17:02.485Z,40.38
2022-08-31T11:18:40.130Z,40.53
2022-08-31T11:20:03.880Z,40.19
2022-08-31T11:21:41.614Z,39.45
2022-08-31T11:23:15.926Z,39.24
2022-08-31T11:24:36.951Z,39.46
2022-08-31T11:26:19.806Z,39.68
2022-08-31T11:27:37.044Z,39.42
2022-08-31T11:28:52.157Z,39.37
2022-08-31T11:30:08.201Z,39.79
2022-08-31T11:31:20.497Z,40.14
2022-08-31T11:32:50.991Z,40.32
2022-08-31T11:34:25.936Z,40.28
2022-08-31T11:36:07.109Z,40.48
2022-08-31T11:37:09.923Z,40.15
2022-08-31T11:38:48.932Z,39.88
2022-08-31T11:39:51.499Z,39.98
2022-08-31T11:41:03.865Z,39.70
2022-08-31T11:42:27.057Z,39.70
2022-08-31T11:43:31.464Z,39.31
2022-08-31T11:44:34.319Z,39.12
2022-08-31T11:45:37.757Z,39.06
2022-08-31T11:46:43.273Z,38.95
2022-08-31T11:47:46.787Z,38.45
2022-08-31T11:48:55.630Z,38.37
2022-08-31T11:50:09.924Z,38.26
2022-08-31T11:51:14.540Z,37.52
2022-08-31T11:52:25.144Z,37.38
2022-08-31T11:53:44.516Z,37.68
2022-08-31T11:54:48.867Z,37.94
2022-08-31T11:55:55.707Z,38.18
2022-08-31T11:56:57.529Z,38.32
2022-08-31T11:58:11.351Z,38.37
2022-08-31T11:59:26.435Z,38.63
2022-08-31T12:00:42.981Z,38.63
2022-08-31T12:01:46.420Z,38.54
2022-08-31T12:03:04.687Z,38.76
2022-08-31T12:04:46.249Z,38.81
2022-08-31T12:05:58.097Z,38.38
2022-08-31T12:07:06.265Z,38.12
2022-08-31T12:08:15.457Z,37.88
2022-08-31T12:09:32.798Z,37.62
2022-08-31T12:10:51.585Z,37.43
2022-08-31T12:12:12.907Z,37.22
2022-08-31T12:13:25.225Z,37.14
2022-08-31T12:14:50.363Z,36.83
2022-08-31T12:16:01.471Z,36.55
2022-08-31T12:17:10.086Z,36.48
2022-08-31T12:18:39.378Z,36.32
2022-08-31T12:20:02.072Z,36.03
2022-08-31T12:21:53.808Z,35.90
2022-08-31T12:23:30.709Z,35.77
2022-08-31T12:24:59.016Z,35.53
2022-08-31T12:26:09.861Z,35.31
2022-08-31T12:27:14.265Z,35.21
2022-08-31T12:28:27.442Z,35.04
2022-08-31T12:29:36.954Z,34.84
2022-08-31T12:30:50.093Z,34.62
2022-08-31T12:32:19.788Z,34.50
2022-08-31T12:33:25.741Z,34.43
2022-08-31T12:34:27.810Z,34.31
2022-08-31T12:35:31.866Z,34.37
2022-08-31T12:36:36.079Z,34.21
2022-08-31T12:37:39.836Z,34.31
2022-08-31T12:38:41.925Z,34.21
2022-08-31T12:39:43.633Z,33.94
2022-08-31T12:40:49.866Z,33.98
2022-08-31T12:42:03.372Z,33.87
2022-08-31T12:43:11.005Z,33.84
2022-08-31T12:44:21.550Z,33.78
2022-08-31T12:45:39.530Z,33.72
2022-08-31T12:47:21.070Z,33.78
2022-08-31T12:48:31.980Z,33.75
2022-08-31T12:50:11.250Z,33.52
2022-08-31T12:51:34.305Z,33.45
2022-08-31T12:53:03.685Z,33.27
2022-08-31T12:54:08.039Z,33.24
2022-08-31T12:55:12.869Z,33.21
2022-08-31T12:56:27.634Z,33.13
2022-08-31T12:58:06.200Z,33.17
2022-08-31T12:59:40.825Z,33.01
2022-08-31T13:00:48.549Z,32.78
2022-08-31T13:01:52.376Z,32.82
2022-08-31T13:03:15.618Z,32.85
2022-08-31T13:04:20.186Z,32.79
2022-08-31T13:05:36.710Z,32.83
2022-08-31T13:06:42.057Z,32.79
2022-08-31T13:07:43.785Z,32.83
2022-08-31T13:08:50.117Z,32.79
2022-08-31T13:10:08.757Z,32.88
2022-08-31T13:11:39.977Z,32.82
2022-08-31T13:12:52.650Z,32.44
2022-08-31T13:14:21.018Z,31.82
2022-08-31T13:15:29.619Z,31.43
2022-08-31T13:16:32.067Z,31.03
2022-08-31T13:17:37.967Z,30.81
2022-08-31T13:18:41.777Z,30.21
2022-08-31T13:19:58.046Z,29.69
2022-08-31T13:21:05.633Z,29.40
2022-08-31T13:22:17.344Z,29.00
2022-08-31T13:23:30.281Z,28.67
2022-08-31T13:24:45.176Z,28.48
2022-08-31T13:26:25.083Z,28.02
2022-08-31T13:27:29.987Z,27.70
2022-08-31T13:28:35.441Z,27.63
2022-08-31T13:29:47.197Z,27.60
2022-08-31T13:31:03.559Z,27.38
2022-08-31T13:32:05.667Z,27.11
2022-08-31T13:33:31.240Z,26.94
2022-08-31T13:34:42.188Z,26.65
2022-08-31T13:35:49.828Z,26.36
2022-08-31T13:36:55.170Z,25.95
2022-08-31T13:38:08.001Z,25.57
2022-08-31T13:39:31.747Z,25.15
2022-08-31T13:40:37.635Z,25.04
2022-08-31T13:42:03.267Z,24.81
2022-08-31T13:43:10.553Z,24.60
2022-08-31T13:44:14.045Z,24.54
2022-08-31T13:45:30.606Z,24.33
2022-08-31T13:46:44.448Z,24.28
2022-08-31T13:47:57.717Z,24.09
2022-08-31T13:49:03.700Z,23.87
2022-08-31T13:50:13.122Z,23.37
2022-08-31T13:51:19.930Z,23.10
2022-08-31T13:52:30.839Z,23.15
2022-08-31T13:53:40.077Z,23.09
2022-08-31T13:54:42.547Z,23.06
2022-08-31T13:55:44.401Z,23.20
2022-08-31T13:56:54.953Z,23.20
2022-08-31T13:58:02.833Z,23.27
2022-08-31T13:59:26.737Z,23.29
2022-08-31T14:00:42.119Z,23.23
2022-08-31T14:01:48.978Z,23.19
2022-08-31T14:02:50.833Z,23.02
2022-08-31T14:03:59.591Z,22.81
2022-08-31T14:05:05.122Z,22.47
2022-08-31T14:06:24.130Z,22.57
2022-08-31T14:07:25.864Z,22.55
2022-08-31T14:08:28.527Z,22.52
2022-08-31T14:09:30.322Z,22.54
2022-08-31T14:10:43.713Z,22.58
2022-08-31T14:12:03.241Z,22.86
2022-08-31T14:13:14.557Z,23.02
2022-08-31T14:14:16.523Z,23.04
2022-08-31T14:15:50.534Z,23.12
2022-08-31T14:16:57.738Z,23.02
2022-08-31T14:19:31.364Z,22.98
2022-08-31T14:20:37.052Z,23.02
2022-08-31T14:21:42.289Z,23.03
2022-08-31T14:22:45.445Z,23.04
2022-08-31T14:23:52.137Z,22.96
2022-08-31T14:24:55.755Z,22.95
2022-08-31T14:26:00.713Z,22.95
2022-08-31T14:27:02.484Z,22.99
2022-08-31T14:28:05.208Z,23.08
2022-08-31T14:29:11.973Z,23.00